Time;durP1;ratioP1;P1;durP2;ratioP2;P2;SDS_P1;SDS_P2;PMS_P1;PMS_P2;Temp;Humidity;BMP_temperature;BMP_pressure;BME280_temperature;BME280_humidity;BME280_pressure;Samples;Min_cycle;Max_cycle;Signal;HPM_P1;HPM_P2
2024/03/29 00:00:35;;;;;;;3.10;0.98;;;10.20;99.90;;;;;;4161499;28;20561;-63
2024/03/29 00:02:36;;;;;;;2.50;1.17;;;10.10;99.90;;;;;;4162488;28;20053;-63
2024/03/29 00:04:36;;;;;;;6.72;1.10;;;10.00;99.90;;;;;;4162754;28;20037;-57
2024/03/29 00:06:37;;;;;;;3.38;0.98;;;10.10;99.90;;;;;;4161543;28;20544;-58
2024/03/29 00:08:37;;;;;;;6.18;1.45;;;10.00;99.90;;;;;;4161732;28;20489;-58
2024/03/29 00:10:38;;;;;;;2.95;0.77;;;10.00;99.90;;;;;;4157873;28;20034;-58
2024/03/29 00:12:39;;;;;;;3.92;1.10;;;10.00;99.90;;;;;;4160954;28;20072;-58
2024/03/29 00:14:39;;;;;;;3.25;0.95;;;9.90;99.90;;;;;;4159968;28;20143;-58
2024/03/29 00:16:40;;;;;;;4.78;1.08;;;9.90;99.90;;;;;;4158635;28;20042;-57
2024/03/29 00:18:41;;;;;;;2.97;1.10;;;9.80;99.90;;;;;;4158566;28;20490;-58
2024/03/29 00:20:41;;;;;;;2.97;1.27;;;9.90;99.90;;;;;;4159007;28;20448;-57
2024/03/29 00:22:42;;;;;;;4.07;0.90;;;9.80;99.90;;;;;;4161159;28;20065;-60
2024/03/29 00:24:43;;;;;;;2.72;0.90;;;9.80;99.90;;;;;;4162376;28;20026;-60
2024/03/29 00:26:43;;;;;;;5.13;1.42;;;9.80;99.90;;;;;;4154396;28;20022;-57
2024/03/29 00:28:44;;;;;;;2.20;1.02;;;9.80;99.90;;;;;;4155017;28;20038;-58
2024/03/29 00:30:44;;;;;;;4.07;1.13;;;9.80;99.90;;;;;;4160232;28;20117;-58
2024/03/29 00:32:45;;;;;;;3.47;0.98;;;9.80;99.90;;;;;;4162382;28;20025;-57
2024/03/29 00:34:45;;;;;;;2.92;0.95;;;9.70;99.90;;;;;;4161842;28;20029;-58
2024/03/29 00:36:46;;;;;;;3.85;1.42;;;9.80;99.90;;;;;;4160863;28;20510;-58
2024/03/29 00:38:47;;;;;;;1.58;0.73;;;9.80;99.90;;;;;;4161381;28;20076;-57
2024/03/29 00:40:47;;;;;;;3.65;1.17;;;9.80;99.90;;;;;;4161560;28;20083;-58
2024/03/29 00:42:48;;;;;;;2.60;1.10;;;9.80;99.90;;;;;;4160437;28;20482;-58
2024/03/29 00:44:48;;;;;;;2.88;1.15;;;9.80;99.90;;;;;;4161089;28;20033;-58
2024/03/29 00:46:49;;;;;;;1.17;0.70;;;9.80;99.90;;;;;;4159421;28;20037;-58
2024/03/29 00:48:49;;;;;;;2.67;1.02;;;9.80;99.90;;;;;;4161493;28;20040;-58
2024/03/29 00:50:50;;;;;;;3.00;0.93;;;9.80;99.90;;;;;;4161309;28;20024;-57
2024/03/29 00:52:51;;;;;;;4.57;1.35;;;9.80;99.90;;;;;;4161878;28;20077;-60
2024/03/29 00:54:51;;;;;;;2.72;0.90;;;9.80;99.90;;;;;;4161753;28;20508;-59
2024/03/29 00:56:52;;;;;;;2.55;1.02;;;9.80;99.90;;;;;;4160745;28;20386;-57
2024/03/29 00:58:53;;;;;;;3.75;0.88;;;9.80;99.90;;;;;;4159434;28;20044;-59
2024/03/29 01:00:53;;;;;;;4.43;1.02;;;9.70;99.90;;;;;;4160445;28;20091;-58
2024/03/29 01:02:54;;;;;;;2.00;0.90;;;9.70;99.90;;;;;;4160694;28;20037;-58
2024/03/29 01:04:54;;;;;;;3.03;0.80;;;9.70;99.90;;;;;;4161242;28;20033;-58
2024/03/29 01:06:56;;;;;;;3.58;0.80;;;9.70;99.90;;;;;;4160705;28;20148;-58
2024/03/29 01:08:56;;;;;;;5.82;1.05;;;9.70;99.90;;;;;;4160925;28;20034;-57
2024/03/29 01:10:57;;;;;;;3.25;1.00;;;9.70;99.90;;;;;;4160156;28;20083;-58
2024/03/29 01:12:58;;;;;;;4.97;1.20;;;9.70;99.90;;;;;;4158861;28;23255;-58
2024/03/29 01:14:59;;;;;;;2.65;0.93;;;9.70;99.90;;;;;;4160651;28;20034;-65
2024/03/29 01:17:00;;;;;;;3.47;1.20;;;9.70;99.90;;;;;;4158737;28;20034;-65
2024/03/29 01:19:00;;;;;;;3.72;1.25;;;9.70;99.90;;;;;;4160692;28;20037;-65
2024/03/29 01:21:01;;;;;;;2.15;0.93;;;9.70;99.90;;;;;;4160636;28;20036;-65
2024/03/29 01:23:02;;;;;;;3.42;0.88;;;9.70;99.90;;;;;;4161115;28;20124;-65
2024/03/29 01:25:03;;;;;;;2.65;0.88;;;9.60;99.90;;;;;;4160598;28;20045;-65
2024/03/29 01:27:06;;;;;;;2.37;0.73;;;9.60;99.90;;;;;;4161299;28;20036;-65
2024/03/29 01:29:07;;;;;;;;;;;9.60;99.90;;;;;;4161260;28;20021;-65
2024/03/29 01:31:07;;;;;;;1.65;0.80;;;9.60;99.90;;;;;;4155255;28;19995;-65
2024/03/29 01:33:08;;;;;;;3.65;1.13;;;9.60;99.90;;;;;;4159868;28;20035;-65
2024/03/29 01:35:08;;;;;;;6.18;0.90;;;9.60;99.90;;;;;;4154754;28;20478;-66
2024/03/29 01:37:09;;;;;;;1.90;0.85;;;9.70;99.90;;;;;;4156250;28;20037;-65
2024/03/29 01:39:14;;;;;;;3.10;0.90;;;9.70;99.90;;;;;;4159939;28;20037;-65
2024/03/29 01:41:15;;;;;;;2.45;0.88;;;9.70;99.90;;;;;;4159197;28;20033;-65
2024/03/29 01:43:16;;;;;;;2.28;1.02;;;9.70;99.90;;;;;;4160829;28;20064;-65
2024/03/29 01:45:16;;;;;;;3.42;1.20;;;9.70;99.90;;;;;;4159257;28;20403;-65
2024/03/29 01:47:18;;;;;;;4.32;0.98;;;9.70;99.90;;;;;;4160633;28;20041;-65
2024/03/29 01:49:18;;;;;;;2.70;0.80;;;9.70;99.90;;;;;;4160517;28;20038;-65
2024/03/29 01:51:22;;;;;;;5.30;0.68;;;9.70;99.90;;;;;;4158485;28;20532;-64
2024/03/29 01:53:24;;;;;;;4.75;1.15;;;9.70;99.90;;;;;;4160799;28;20092;-65
2024/03/29 01:55:25;;;;;;;1.52;0.68;;;9.80;99.90;;;;;;4159875;28;20474;-65
2024/03/29 01:57:26;;;;;;;3.92;1.05;;;9.80;99.90;;;;;;4160644;28;20038;-65
2024/03/29 01:59:28;;;;;;;2.17;0.90;;;9.80;99.90;;;;;;4161005;28;20057;-65
2024/03/29 02:01:30;;;;;;;3.00;1.00;;;9.80;99.90;;;;;;4160843;28;20037;-65
2024/03/29 02:03:32;;;;;;;2.08;1.02;;;9.80;99.90;;;;;;4161186;28;20029;-65
2024/03/29 02:05:32;;;;;;;3.92;1.27;;;9.80;99.90;;;;;;4160559;28;20538;-65
2024/03/29 02:07:34;;;;;;;4.25;1.30;;;9.90;99.90;;;;;;4160913;28;20029;-65
2024/03/29 02:09:34;;;;;;;4.07;1.40;;;9.90;99.90;;;;;;4160932;28;20032;-65
2024/03/29 02:11:36;;;;;;;3.92;1.48;;;9.90;99.90;;;;;;4159848;28;20041;-65
2024/03/29 02:13:37;;;;;;;4.53;1.45;;;9.90;99.90;;;;;;4161103;28;20064;-65
2024/03/29 02:15:39;;;;;;;3.22;1.55;;;9.90;99.90;;;;;;4159619;28;20501;-65
2024/03/29 02:17:40;;;;;;;2.92;1.40;;;9.90;99.90;;;;;;4160454;28;20040;-65
2024/03/29 02:19:40;;;;;;;3.78;1.63;;;9.90;99.90;;;;;;4159206;28;20044;-65
2024/03/29 02:21:45;;;;;;;4.00;1.65;;;9.90;99.90;;;;;;4160312;28;20047;-65
2024/03/29 02:24:06;;;;;;;3.50;1.55;;;10.00;99.90;;;;;;4160948;28;20170;-63
2024/03/29 02:26:07;;;;;;;3.00;1.25;;;10.00;99.90;;;;;;4159450;28;20025;-63
2024/03/29 02:28:07;;;;;;;3.88;1.20;;;10.00;99.90;;;;;;4160648;28;20516;-63
2024/03/29 02:30:15;;;;;;;3.10;1.40;;;10.00;99.90;;;;;;4160531;28;20040;-64
2024/03/29 02:32:15;;;;;;;3.13;1.17;;;10.10;99.90;;;;;;4162846;28;20087;-63
2024/03/29 02:34:16;;;;;;;2.67;1.15;;;10.10;99.90;;;;;;4164009;28;20033;-63
2024/03/29 02:36:17;;;;;;;2.47;1.10;;;10.10;99.90;;;;;;4161708;28;20092;-63
2024/03/29 02:38:17;;;;;;;3.67;1.10;;;10.10;99.90;;;;;;4163539;28;20086;-63
2024/03/29 02:40:18;;;;;;;4.38;1.20;;;10.10;99.90;;;;;;4162606;28;20029;-63
2024/03/29 02:42:19;;;;;;;2.53;1.10;;;10.10;99.90;;;;;;4163738;28;20558;-63
2024/03/29 02:44:20;;;;;;;4.97;0.90;;;10.10;99.90;;;;;;4155958;28;20049;-63
2024/03/29 02:46:20;;;;;;;2.30;0.85;;;10.20;99.90;;;;;;4162402;28;20442;-63
2024/03/29 02:48:21;;;;;;;2.38;1.00;;;10.10;99.90;;;;;;4163744;28;20036;-63
2024/03/29 02:50:21;;;;;;;2.45;0.90;;;10.20;99.90;;;;;;4162790;28;20037;-63
2024/03/29 02:52:22;;;;;;;5.40;1.10;;;10.20;99.90;;;;;;4162993;28;20061;-63
2024/03/29 02:54:23;;;;;;;2.70;1.20;;;10.20;99.90;;;;;;4163575;28;20383;-63
2024/03/29 02:56:23;;;;;;;3.40;0.68;;;10.20;99.90;;;;;;4162318;28;20113;-64
2024/03/29 02:58:24;;;;;;;2.60;1.00;;;10.20;99.90;;;;;;4163686;28;20033;-64
2024/03/29 03:00:25;;;;;;;3.58;1.15;;;10.20;99.90;;;;;;4162804;28;20057;-63
2024/03/29 03:02:25;;;;;;;3.13;0.98;;;10.20;99.90;;;;;;4162656;28;20099;-63
2024/03/29 03:04:26;;;;;;;5.18;1.20;;;10.20;99.90;;;;;;4163321;28;20394;-64
2024/03/29 03:06:26;;;;;;;2.63;0.82;;;10.20;99.90;;;;;;4162441;28;20052;-64
2024/03/29 03:10:56;;;;;;;1.98;0.95;;;10.20;99.90;;;;;;4162744;28;20108;-64
2024/03/29 03:12:56;;;;;;;3.85;0.90;;;10.30;99.90;;;;;;4159859;28;20041;-64
2024/03/29 03:14:58;;;;;;;3.33;0.82;;;10.20;99.90;;;;;;4162865;28;20033;-63
2024/03/29 03:16:59;;;;;;;1.58;0.60;;;10.20;99.90;;;;;;4161949;28;20449;-64
2024/03/29 03:19:00;;;;;;;4.28;1.00;;;10.20;99.90;;;;;;4162613;28;20035;-64
2024/03/29 03:21:02;;;;;;;2.15;0.90;;;10.20;99.90;;;;;;4162203;28;20034;-64
2024/03/29 03:23:03;;;;;;;3.97;1.05;;;10.20;99.90;;;;;;4162270;28;20398;-64
2024/03/29 03:25:04;;;;;;;4.30;0.80;;;10.20;99.90;;;;;;4161703;28;20032;-66
2024/03/29 03:27:04;;;;;;;1.65;0.80;;;10.20;99.90;;;;;;4160905;28;20470;-64
2024/03/29 03:29:07;;;;;;;2.40;1.05;;;10.20;99.90;;;;;;4162978;28;20040;-63
2024/03/29 03:31:09;;;;;;;2.55;0.70;;;10.20;99.90;;;;;;4162245;28;20029;-64
2024/03/29 03:33:09;;;;;;;4.30;1.20;;;10.20;99.90;;;;;;4163352;28;20107;-64
2024/03/29 03:35:10;;;;;;;2.30;0.77;;;10.20;99.90;;;;;;4162476;28;20116;-68
2024/03/29 03:37:10;;;;;;;1.95;0.80;;;10.20;99.90;;;;;;4161972;28;20478;-67
2024/03/29 03:39:11;;;;;;;1.15;0.60;;;10.20;99.90;;;;;;4160746;28;20033;-67
2024/03/29 03:41:12;;;;;;;1.92;0.80;;;10.20;99.90;;;;;;4162175;28;20066;-67
2024/03/29 03:43:13;;;;;;;3.65;0.88;;;10.20;99.90;;;;;;4162307;28;20052;-67
2024/03/29 03:45:13;;;;;;;1.85;0.60;;;10.20;99.90;;;;;;4161843;28;20435;-68
2024/03/29 03:47:14;;;;;;;0.68;0.50;;;10.30;99.90;;;;;;4160807;28;20473;-68
2024/03/29 03:49:15;;;;;;;2.15;0.70;;;10.30;99.90;;;;;;4162605;28;20544;-68
2024/03/29 03:51:16;;;;;;;0.80;0.50;;;10.30;99.90;;;;;;4161599;28;20022;-67
2024/03/29 03:53:16;;;;;;;3.88;1.33;;;10.30;99.90;;;;;;4162992;28;20037;-67
2024/03/29 03:55:17;;;;;;;4.10;1.00;;;10.30;99.90;;;;;;4161483;28;20061;-68
2024/03/29 03:57:17;;;;;;;2.80;0.90;;;10.30;99.90;;;;;;4161189;28;20501;-67
2024/03/29 03:59:18;;;;;;;2.88;0.70;;;10.30;99.90;;;;;;4162820;28;20087;-67
2024/03/29 04:01:18;;;;;;;1.65;0.60;;;10.30;99.90;;;;;;4161340;28;20117;-68
2024/03/29 04:03:19;;;;;;;2.53;0.95;;;10.30;99.90;;;;;;4161528;28;20029;-68
2024/03/29 04:05:20;;;;;;;2.10;0.85;;;10.30;99.90;;;;;;4154272;28;20065;-68
2024/03/29 04:07:20;;;;;;;3.08;0.88;;;10.40;99.90;;;;;;4160981;28;20049;-67
2024/03/29 04:09:21;;;;;;;2.78;0.80;;;10.30;99.90;;;;;;4157825;28;20474;-68
2024/03/29 04:11:22;;;;;;;3.35;0.88;;;10.30;99.90;;;;;;4155888;28;20095;-67
2024/03/29 04:13:22;;;;;;;0.95;0.68;;;10.30;99.90;;;;;;4156204;28;20060;-67
2024/03/29 04:15:23;;;;;;;1.05;0.50;;;10.30;99.90;;;;;;4156229;28;20037;-68
2024/03/29 04:17:24;;;;;;;0.93;0.60;;;10.30;99.90;;;;;;4158672;28;20564;-67
2024/03/29 04:19:24;;;;;;;3.97;0.90;;;10.30;99.90;;;;;;4161904;28;20041;-67
2024/03/29 04:21:25;;;;;;;1.65;0.50;;;10.20;99.90;;;;;;4161293;28;20529;-67
2024/03/29 04:23:25;;;;;;;1.85;0.88;;;10.20;99.90;;;;;;4161343;28;20068;-68
2024/03/29 04:25:26;;;;;;;2.47;0.70;;;10.20;99.90;;;;;;4155611;28;20499;-68
2024/03/29 04:27:27;;;;;;;1.15;0.60;;;10.30;99.90;;;;;;4161556;28;20037;-67
2024/03/29 04:29:27;;;;;;;1.85;0.70;;;10.30;99.90;;;;;;4160905;28;20029;-68
2024/03/29 04:31:28;;;;;;;0.95;0.57;;;10.30;99.90;;;;;;4160663;28;20041;-68
2024/03/29 04:33:28;;;;;;;1.83;0.70;;;10.30;99.90;;;;;;4161231;28;20033;-67
2024/03/29 04:35:29;;;;;;;3.08;0.90;;;10.20;99.90;;;;;;4161708;28;20068;-68
2024/03/29 04:37:29;;;;;;;1.40;0.57;;;10.20;99.90;;;;;;4159898;28;20395;-67
2024/03/29 04:39:30;;;;;;;1.17;0.70;;;10.20;99.90;;;;;;4160764;28;20095;-67
2024/03/29 04:41:34;;;;;;;1.70;0.90;;;10.20;99.90;;;;;;4161466;28;20049;-67
2024/03/29 04:43:34;;;;;;;1.60;0.80;;;10.20;99.90;;;;;;4161546;28;20112;-68
2024/03/29 04:45:35;;;;;;;1.40;0.70;;;10.20;99.90;;;;;;4160198;28;20482;-67
2024/03/29 04:47:35;;;;;;;2.60;1.00;;;10.10;99.90;;;;;;4159576;28;20034;-68
2024/03/29 04:49:36;;;;;;;4.20;0.98;;;10.20;99.90;;;;;;4161557;28;20029;-67
2024/03/29 04:51:37;;;;;;;2.78;0.90;;;10.00;99.90;;;;;;4159319;28;20320;-67
2024/03/29 04:53:38;;;;;;;3.10;1.10;;;10.00;99.90;;;;;;4161828;28;20030;-61
2024/03/29 04:55:39;;;;;;;2.13;0.70;;;10.00;99.90;;;;;;4161542;28;20048;-66
2024/03/29 04:57:40;;;;;;;2.30;0.70;;;10.00;99.90;;;;;;4160553;28;20256;-66
2024/03/29 04:59:40;;;;;;;1.48;0.70;;;9.90;99.90;;;;;;4161035;28;20436;-66
2024/03/29 05:01:43;;;;;;;2.63;0.80;;;9.90;99.90;;;;;;4160382;28;20033;-66
2024/03/29 05:03:43;;;;;;;;;;;10.00;99.90;;;;;;4162080;28;20037;-65
2024/03/29 05:05:45;;;;;;;1.35;0.63;;;9.90;99.90;;;;;;4159269;28;20597;-65
2024/03/29 05:07:45;;;;;;;4.00;0.85;;;9.90;99.90;;;;;;4160344;28;20434;-66
2024/03/29 05:09:47;;;;;;;2.28;0.80;;;9.90;99.90;;;;;;4160970;28;20052;-65
2024/03/29 05:11:48;;;;;;;2.20;0.70;;;9.90;99.90;;;;;;4158282;28;20033;-66
2024/03/29 05:13:52;;;;;;;1.02;0.50;;;9.90;99.90;;;;;;4160340;28;20029;-65
2024/03/29 05:15:53;;;;;;;3.30;0.80;;;9.90;99.90;;;;;;4157816;28;20145;-66
2024/03/29 05:17:53;;;;;;;2.28;0.88;;;9.90;99.90;;;;;;4155838;28;20033;-66
2024/03/29 05:19:54;;;;;;;1.17;0.82;;;9.90;99.90;;;;;;4159788;28;20243;-65
2024/03/29 05:21:55;;;;;;;1.98;0.77;;;9.90;99.90;;;;;;4160863;28;20470;-66
2024/03/29 05:23:55;;;;;;;2.38;0.57;;;9.90;99.90;;;;;;4159330;28;20040;-61
2024/03/29 05:25:56;;;;;;;3.33;1.08;;;9.80;99.90;;;;;;4159309;28;20029;-67
2024/03/29 05:27:57;;;;;;;4.88;1.00;;;9.80;99.90;;;;;;4160073;28;20110;-68
2024/03/29 05:29:57;;;;;;;1.45;0.80;;;9.80;99.90;;;;;;4157746;28;22960;-72
2024/03/29 05:31:58;;;;;;;2.97;1.30;;;9.80;99.90;;;;;;4160495;28;20041;-72
2024/03/29 05:34:00;;;;;;;3.15;0.70;;;9.80;99.90;;;;;;4157152;28;20121;-72
2024/03/29 05:36:04;;;;;;;2.15;0.80;;;9.80;99.90;;;;;;4149383;28;20033;-67
2024/03/29 05:38:05;;;;;;;2.65;0.68;;;9.80;99.90;;;;;;4157832;28;20037;-66
2024/03/29 05:40:07;;;;;;;1.88;1.00;;;9.80;99.90;;;;;;4189939;28;20025;-61
2024/03/29 05:42:08;;;;;;;1.80;0.50;;;9.80;99.90;;;;;;4160445;28;20478;-60
2024/03/29 05:44:09;;;;;;;2.47;0.70;;;9.80;99.90;;;;;;4157498;28;20122;-61
2024/03/29 05:46:09;;;;;;;2.28;0.90;;;9.80;99.90;;;;;;4156634;28;20034;-64
2024/03/29 05:48:10;;;;;;;1.05;0.80;;;9.80;99.90;;;;;;4160778;28;20034;-63
2024/03/29 05:50:11;;;;;;;2.45;1.15;;;9.80;99.90;;;;;;4159331;28;20532;-68
2024/03/29 05:52:14;;;;;;;1.65;0.90;;;9.80;99.90;;;;;;4156964;28;20085;-66
2024/03/29 05:54:14;;;;;;;2.60;1.10;;;9.70;99.90;;;;;;4160007;28;20116;-63
2024/03/29 05:56:15;;;;;;;1.75;0.75;;;9.70;99.90;;;;;;4154615;28;20127;-68
2024/03/29 05:58:20;;;;;;;2.10;1.15;;;9.70;99.90;;;;;;4159154;28;20132;-68
2024/03/29 06:00:21;;;;;;;1.60;0.73;;;9.60;99.90;;;;;;4157501;28;20163;-68
2024/03/29 06:02:22;;;;;;;1.75;0.80;;;9.60;99.90;;;;;;4157497;28;20470;-68
2024/03/29 06:04:30;;;;;;;1.55;0.80;;;9.60;99.90;;;;;;4158525;28;20037;-67
2024/03/29 06:06:31;;;;;;;2.90;1.15;;;9.60;99.90;;;;;;4157667;28;20439;-74
2024/03/29 06:08:35;;;;;;;2.15;1.00;;;9.50;99.90;;;;;;4161204;28;20028;-60
2024/03/29 06:10:36;;;;;;;4.75;1.35;;;9.50;99.90;;;;;;4160167;28;20029;-60
2024/03/29 06:12:38;;;;;;;2.53;1.00;;;9.50;99.90;;;;;;4162098;28;20025;-67
2024/03/29 06:19:16;;;;;;;1.90;0.90;;;9.50;99.90;;;;;;4181198;28;20376;-66
2024/03/29 06:21:17;;;;;;;1.48;0.82;;;9.50;99.90;;;;;;4162908;28;20060;-74
2024/03/29 06:23:24;;;;;;;1.83;1.00;;;9.60;99.90;;;;;;4164229;28;20486;-63
2024/03/29 06:25:24;;;;;;;1.85;0.95;;;9.60;99.90;;;;;;4194285;28;20032;-63
2024/03/29 06:27:25;;;;;;;3.92;1.23;;;9.60;99.90;;;;;;4160752;28;20116;-66
2024/03/29 06:29:26;;;;;;;2.20;0.90;;;9.60;99.90;;;;;;4161762;28;20371;-64
2024/03/29 06:31:26;;;;;;;1.65;0.75;;;9.70;99.90;;;;;;4159947;28;20037;-64
2024/03/29 06:33:27;;;;;;;2.47;0.90;;;9.70;99.90;;;;;;4163451;28;20478;-67
2024/03/29 06:35:28;;;;;;;3.83;1.40;;;9.70;99.90;;;;;;4159506;28;20507;-68
2024/03/29 06:37:29;;;;;;;2.97;1.13;;;9.70;99.90;;;;;;4163681;28;20026;-67
2024/03/29 06:39:29;;;;;;;2.88;1.08;;;9.80;99.90;;;;;;4160807;28;20036;-60
2024/03/29 06:41:30;;;;;;;3.03;1.20;;;9.70;99.90;;;;;;4159763;28;20040;-73
2024/03/29 06:43:31;;;;;;;2.67;1.20;;;9.80;99.90;;;;;;4158214;28;20037;-73
2024/03/29 06:45:31;;;;;;;1.92;1.00;;;9.80;99.90;;;;;;4153943;28;20057;-66
2024/03/29 06:47:32;;;;;;;3.50;1.48;;;9.80;99.90;;;;;;4159470;28;20469;-66
2024/03/29 06:49:32;;;;;;;3.13;1.45;;;9.80;99.90;;;;;;4160300;28;20095;-66
2024/03/29 06:51:33;;;;;;;2.60;0.98;;;9.80;99.90;;;;;;4159339;28;20250;-60
2024/03/29 06:53:37;;;;;;;4.38;1.40;;;9.80;99.90;;;;;;4158099;28;20026;-72
2024/03/29 06:55:38;;;;;;;5.60;1.13;;;9.70;99.90;;;;;;4160495;28;20478;-66
2024/03/29 06:57:38;;;;;;;4.38;1.48;;;9.70;99.90;;;;;;4162131;28;20037;-65
2024/03/29 06:59:39;;;;;;;2.60;1.42;;;9.70;99.90;;;;;;4161521;28;20034;-72
2024/03/29 07:01:40;;;;;;;4.45;1.48;;;9.60;99.90;;;;;;4162759;28;20032;-72
2024/03/29 07:03:41;;;;;;;5.55;1.30;;;9.60;99.90;;;;;;4160866;28;20026;-68
2024/03/29 07:05:41;;;;;;;3.47;1.40;;;9.60;99.90;;;;;;4157178;28;20042;-72
2024/03/29 07:07:42;;;;;;;4.10;1.10;;;9.60;99.90;;;;;;4161136;28;20118;-64
2024/03/29 07:09:43;;;;;;;5.13;1.23;;;9.50;99.90;;;;;;4154041;28;20036;-66
2024/03/29 07:11:45;;;;;;;3.08;1.02;;;9.50;99.90;;;;;;4157075;28;20129;-59
2024/03/29 07:13:45;;;;;;;4.22;1.55;;;9.50;99.90;;;;;;4192350;28;20046;-71
2024/03/29 07:15:52;;;;;;;2.67;1.20;;;9.40;99.90;;;;;;4154796;28;20065;-72
2024/03/29 07:17:53;;;;;;;4.07;1.05;;;9.40;99.90;;;;;;4156636;28;20033;-73
2024/03/29 07:19:54;;;;;;;4.53;1.23;;;9.40;99.90;;;;;;4158829;28;20101;-60
2024/03/29 07:21:55;;;;;;;3.80;1.17;;;9.40;99.90;;;;;;4175986;28;20098;-59
2024/03/29 07:23:55;;;;;;;3.25;1.10;;;9.40;99.90;;;;;;4159801;28;20033;-59
2024/03/29 07:26:03;;;;;;;3.60;1.40;;;9.40;99.90;;;;;;4156780;28;20405;-65
2024/03/29 07:28:04;;;;;;;5.25;1.30;;;9.40;99.90;;;;;;4156144;28;20406;-64
2024/03/29 07:30:07;;;;;;;2.05;1.00;;;9.40;99.90;;;;;;4154522;28;20026;-68
2024/03/29 07:32:08;;;;;;;3.05;1.65;;;9.50;99.90;;;;;;4159871;28;20039;-67
2024/03/29 07:34:10;;;;;;;2.80;1.20;;;9.50;99.90;;;;;;4160386;28;20044;-64
2024/03/29 07:36:12;;;;;;;4.43;1.20;;;9.50;99.90;;;;;;4162279;28;20038;-59
2024/03/29 07:38:13;;;;;;;2.35;1.20;;;9.60;99.90;;;;;;4162286;28;20026;-67
2024/03/29 07:40:14;;;;;;;4.15;1.30;;;9.60;99.90;;;;;;4156121;28;20599;-72
2024/03/29 07:42:15;;;;;;;4.47;1.08;;;9.60;99.90;;;;;;4154696;28;20040;-73
2024/03/29 07:44:16;;;;;;;4.10;1.08;;;9.60;99.90;;;;;;4157197;28;20040;-73
2024/03/29 07:46:16;;;;;;;4.05;1.13;;;9.70;99.90;;;;;;4150288;28;20033;-73
2024/03/29 07:48:18;;;;;;;5.47;1.50;;;9.70;99.90;;;;;;4151762;28;20053;-72
2024/03/29 07:50:19;;;;;;;3.47;1.42;;;9.80;99.90;;;;;;4151212;28;20040;-72
2024/03/29 07:52:21;;;;;;;3.92;1.35;;;9.70;99.90;;;;;;4152999;28;20064;-73
2024/03/29 07:54:22;;;;;;;2.90;1.20;;;9.80;99.90;;;;;;4152451;28;20092;-73
2024/03/29 07:56:24;;;;;;;8.52;1.45;;;9.80;99.90;;;;;;4149967;28;20037;-73
2024/03/29 07:58:25;;;;;;;5.35;1.42;;;9.80;99.90;;;;;;4151536;28;20033;-73
2024/03/29 08:00:26;;;;;;;1.95;1.10;;;9.80;99.90;;;;;;4154036;28;20038;-73
2024/03/29 08:02:27;;;;;;;2.80;1.17;;;9.90;99.90;;;;;;4146560;28;20132;-72
2024/03/29 08:04:28;;;;;;;2.83;1.10;;;9.90;99.90;;;;;;4156545;28;20124;-73
2024/03/29 08:06:29;;;;;;;2.97;1.20;;;9.90;99.90;;;;;;4152458;28;20085;-73
2024/03/29 08:08:30;;;;;;;3.97;1.17;;;10.00;99.90;;;;;;4155951;28;20033;-74
2024/03/29 08:10:31;;;;;;;4.22;1.10;;;10.00;99.90;;;;;;4156052;28;20037;-73
2024/03/29 08:12:32;;;;;;;1.42;0.98;;;10.00;99.90;;;;;;4159972;28;20045;-74
2024/03/29 08:14:33;;;;;;;5.05;1.50;;;10.10;99.90;;;;;;4153098;28;20460;-72
2024/03/29 08:16:34;;;;;;;1.80;0.98;;;10.20;99.90;;;;;;4154464;28;20064;-73
2024/03/29 08:18:34;;;;;;;3.60;0.93;;;10.30;99.90;;;;;;4159050;28;20025;-73
2024/03/29 08:20:35;;;;;;;1.92;1.13;;;10.30;99.90;;;;;;4158404;28;20037;-73
2024/03/29 08:22:36;;;;;;;2.65;1.17;;;10.30;99.90;;;;;;4159752;28;20112;-73
2024/03/29 08:24:37;;;;;;;2.33;1.13;;;10.40;99.90;;;;;;4159952;28;20041;-74
2024/03/29 08:26:38;;;;;;;3.58;1.20;;;10.40;99.90;;;;;;4153162;28;20057;-74
2024/03/29 08:28:39;;;;;;;4.45;1.20;;;10.50;99.90;;;;;;4158777;28;20041;-74
2024/03/29 08:30:39;;;;;;;3.45;1.35;;;10.50;99.90;;;;;;4157523;28;20319;-74
2024/03/29 08:32:40;;;;;;;1.85;1.10;;;10.60;99.90;;;;;;4159094;28;20042;-74
2024/03/29 08:34:41;;;;;;;2.65;0.93;;;10.60;99.90;;;;;;4157121;28;20033;-74
2024/03/29 08:36:41;;;;;;;3.33;1.10;;;10.60;99.90;;;;;;4158239;28;20116;-74
2024/03/29 08:38:44;;;;;;;3.30;1.10;;;10.60;99.90;;;;;;4156137;28;20481;-74
2024/03/29 08:40:47;;;;;;;2.88;1.23;;;10.60;99.90;;;;;;4160613;28;20498;-74
2024/03/29 08:42:48;;;;;;;2.47;1.20;;;10.70;99.90;;;;;;4158244;28;20429;-74
2024/03/29 08:44:49;;;;;;;2.47;1.00;;;10.70;99.90;;;;;;4160076;28;20037;-64
2024/03/29 08:46:50;;;;;;;1.88;1.10;;;10.70;99.90;;;;;;4157898;28;20435;-63
2024/03/29 08:48:50;;;;;;;3.20;1.40;;;10.80;99.90;;;;;;4146526;28;20080;-64
2024/03/29 08:50:51;;;;;;;3.50;1.20;;;10.80;99.90;;;;;;4152388;28;20414;-63
2024/03/29 08:52:52;;;;;;;2.53;0.90;;;10.80;99.90;;;;;;4158380;28;20033;-64
2024/03/29 08:54:53;;;;;;;3.05;1.10;;;10.80;99.90;;;;;;4152628;28;20029;-64
2024/03/29 08:56:54;;;;;;;3.53;1.00;;;10.80;99.90;;;;;;4155303;28;20045;-64
2024/03/29 08:58:54;;;;;;;1.30;0.77;;;10.80;99.90;;;;;;4157104;28;20050;-64
2024/03/29 09:00:56;;;;;;;0.95;0.77;;;10.90;99.90;;;;;;4162554;28;20036;-64
2024/03/29 09:02:57;;;;;;;2.10;1.10;;;10.90;99.90;;;;;;4157917;28;20049;-64
2024/03/29 09:04:58;;;;;;;2.67;1.20;;;10.90;99.90;;;;;;4160681;28;20387;-64
2024/03/29 09:06:58;;;;;;;2.45;1.48;;;10.90;99.90;;;;;;4156279;28;20061;-64
2024/03/29 09:08:59;;;;;;;3.25;1.33;;;11.00;99.90;;;;;;4157726;28;20417;-64
2024/03/29 09:11:01;;;;;;;2.80;1.17;;;11.00;99.90;;;;;;4158170;28;20056;-63
2024/03/29 09:13:02;;;;;;;4.05;1.38;;;11.00;99.90;;;;;;4160292;28;20029;-64
2024/03/29 09:15:08;;;;;;;4.30;1.00;;;11.00;99.90;;;;;;4172497;28;20037;-64
2024/03/29 09:17:11;;;;;;;3.15;1.10;;;11.00;99.90;;;;;;4158665;28;20398;-63
2024/03/29 09:19:11;;;;;;;3.47;1.08;;;11.10;99.90;;;;;;4158225;28;20022;-64
2024/03/29 09:21:12;;;;;;;2.30;1.13;;;11.10;99.90;;;;;;4157658;28;20712;-64
2024/03/29 09:23:16;;;;;;;4.35;1.27;;;11.20;99.90;;;;;;4159538;28;20044;-63
2024/03/29 09:25:17;;;;;;;3.30;1.10;;;11.20;99.90;;;;;;4153092;28;20070;-63
2024/03/29 09:27:18;;;;;;;4.13;1.05;;;11.20;99.90;;;;;;4157655;28;20037;-63
2024/03/29 09:29:20;;;;;;;1.80;1.23;;;11.20;99.90;;;;;;4155489;28;20034;-63
2024/03/29 09:31:21;;;;;;;1.80;1.10;;;11.30;99.90;;;;;;4155492;28;20044;-63
2024/03/29 09:33:22;;;;;;;1.95;0.93;;;11.30;99.90;;;;;;4159411;28;20033;-63
2024/03/29 09:35:22;;;;;;;1.95;1.20;;;11.30;99.90;;;;;;4154094;28;20119;-63
2024/03/29 09:37:23;;;;;;;2.05;1.10;;;11.30;99.90;;;;;;4160053;28;20051;-63
2024/03/29 09:39:24;;;;;;;2.22;1.15;;;11.40;99.90;;;;;;4157440;28;20034;-64
2024/03/29 09:41:28;;;;;;;1.67;0.95;;;11.40;99.90;;;;;;4156816;28;20050;-63
2024/03/29 09:43:30;;;;;;;2.50;0.95;;;11.40;99.90;;;;;;4152548;28;20042;-64
2024/03/29 09:45:36;;;;;;;2.38;0.95;;;11.40;99.90;;;;;;4150372;28;20258;-63
2024/03/29 09:47:39;;;;;;;1.92;1.00;;;11.40;99.90;;;;;;4153402;28;20063;-63
2024/03/29 09:49:44;;;;;;;2.40;1.08;;;11.50;99.90;;;;;;4158257;28;20034;-63
2024/03/29 09:51:45;;;;;;;1.85;1.13;;;11.50;99.90;;;;;;4156211;28;20458;-63
2024/03/29 09:53:47;;;;;;;3.35;1.15;;;11.50;99.90;;;;;;4156323;28;20033;-59
2024/03/29 09:55:48;;;;;;;1.83;1.02;;;11.60;99.90;;;;;;4157624;28;21658;-59
2024/03/29 09:57:49;;;;;;;1.92;1.00;;;11.60;99.90;;;;;;4153941;28;20179;-58
2024/03/29 09:59:50;;;;;;;2.40;1.40;;;11.70;99.90;;;;;;4158063;28;20044;-58
2024/03/29 10:01:51;;;;;;;2.03;0.75;;;11.70;99.90;;;;;;4154430;28;20518;-59
2024/03/29 10:03:54;;;;;;;3.30;1.38;;;11.70;99.90;;;;;;4155101;28;20277;-59
2024/03/29 10:06:01;;;;;;;1.75;0.93;;;11.80;99.90;;;;;;4154361;28;20060;-58
2024/03/29 10:08:07;;;;;;;1.95;1.10;;;11.80;99.90;;;;;;4158187;28;20041;-59
2024/03/29 10:10:08;;;;;;;2.58;0.80;;;11.80;99.90;;;;;;4157906;28;20505;-60
2024/03/29 10:12:09;;;;;;;1.83;1.08;;;11.90;99.90;;;;;;4159349;28;20030;-59
2024/03/29 10:14:09;;;;;;;1.55;0.75;;;11.90;99.90;;;;;;4159034;28;20056;-59
2024/03/29 10:16:11;;;;;;;1.10;0.77;;;12.00;99.90;;;;;;4157178;28;20037;-59
2024/03/29 10:18:11;;;;;;;1.58;0.90;;;12.00;99.90;;;;;;4160864;28;20048;-58
2024/03/29 10:20:16;;;;;;;2.67;1.40;;;12.10;99.90;;;;;;4159855;28;20494;-60
2024/03/29 10:22:17;;;;;;;1.73;0.95;;;12.10;99.90;;;;;;4159680;28;20053;-59
2024/03/29 10:24:17;;;;;;;1.83;1.15;;;12.10;99.90;;;;;;4158486;28;20704;-58
2024/03/29 10:26:18;;;;;;;2.67;0.93;;;12.10;99.90;;;;;;4155525;28;20046;-58
2024/03/29 10:28:19;;;;;;;1.38;1.08;;;12.20;99.90;;;;;;4156329;28;20057;-58
2024/03/29 10:30:21;;;;;;;2.33;1.17;;;12.20;99.90;;;;;;4153777;28;20041;-59
2024/03/29 10:32:22;;;;;;;1.75;0.80;;;12.20;99.90;;;;;;4156312;28;20073;-58
2024/03/29 10:34:25;;;;;;;2.78;1.08;;;12.30;99.90;;;;;;4161043;28;20038;-59
2024/03/29 10:36:25;;;;;;;;;;;12.20;99.90;;;;;;4137147;28;20064;-58
2024/03/29 10:38:27;;;;;;;2.67;1.02;;;12.20;99.90;;;;;;4147289;28;19928;-58
2024/03/29 10:40:29;;;;;;;2.13;1.30;;;12.30;99.90;;;;;;4154369;28;20152;-61
2024/03/29 10:42:32;;;;;;;2.30;1.00;;;12.30;99.90;;;;;;4135315;28;20125;-59